Terminal Aerodrome Forecast
Issued by NWS

Home | Current Version | Previous Version | Text Only | Print | Product List | Glossary On
Versions: 1 2 3 4 5 6 7 8 9 10 11 12 13 14 15 16 17 18 19 20 21 22 23 24 25 26 27 28 29 30
000
FTUS43 KDTX 182320
TAFMBS
TAF
KMBS 182320Z 1900/1924 01015KT P6SM SCT025 OVC100
     FM190600 06014KT 3SM -SN SCT015 OVC025
     FM191200 05014KT 2SM -SN BR OVC015
     FM191800 04015G24KT P6SM -SN BKN018 OVC035=

USA.gov is the U.S. government's official web portal to all federal, state and local government web resources and services.